createdAt,value
2022-07-29T00:03:08.058Z,16.25
2022-07-29T00:18:27.646Z,16.35
2022-07-29T00:27:48.724Z,15.15
2022-07-29T00:53:20.523Z,13.30
2022-07-29T00:55:08.674Z,11.07
2022-07-29T00:59:26.498Z,11.68
2022-07-29T01:09:10.395Z,9.27
2022-07-29T01:13:11.954Z,11.10
2022-07-29T01:17:21.423Z,11.70
2022-07-29T01:26:05.902Z,8.32
2022-07-29T01:34:44.277Z,8.23
2022-07-29T01:39:08.863Z,8.10
2022-07-29T01:43:20.566Z,8.75
2022-07-29T01:47:37.691Z,9.38
2022-07-29T01:52:00.452Z,8.23
2022-07-29T01:56:14.608Z,8.40
2022-07-29T02:00:19.359Z,9.13
2022-07-29T02:04:49.955Z,9.63
2022-07-29T02:09:01.196Z,10.68
2022-07-29T02:13:09.693Z,13.10
2022-07-29T02:17:15.076Z,10.82
2022-07-29T02:21:33.947Z,12.40
2022-07-29T02:25:38.888Z,10.93
2022-07-29T02:29:57.755Z,11.38
2022-07-29T02:34:19.058Z,12.57
2022-07-29T02:38:50.651Z,12.93
2022-07-29T02:42:55.897Z,12.45
2022-07-29T02:47:41.468Z,13.93
2022-07-29T02:51:58.921Z,13.07
2022-07-29T03:02:21.538Z,13.55
2022-07-29T03:06:52.279Z,13.73
2022-07-29T03:11:09.001Z,13.18
2022-07-29T03:15:34.211Z,13.60
2022-07-29T03:19:55.432Z,13.10
2022-07-29T03:24:10.475Z,12.48
2022-07-29T03:28:19.192Z,12.45
2022-07-29T03:33:35.774Z,11.68
2022-07-29T03:43:20.478Z,14.10
2022-07-29T03:47:50.391Z,14.65
2022-07-29T03:52:12.971Z,12.32
2022-07-29T03:56:46.178Z,11.63
2022-07-29T04:01:11.090Z,11.55
2022-07-29T04:05:16.432Z,10.75
2022-07-29T04:09:25.059Z,10.07
2022-07-29T04:13:39.224Z,9.18
2022-07-29T04:17:41.505Z,8.90
2022-07-29T04:21:47.070Z,10.00
2022-07-29T04:25:49.040Z,9.13
2022-07-29T04:35:38.079Z,8.13
2022-07-29T05:17:50.943Z,7.00
2022-07-29T05:59:15.546Z,6.75
2022-07-29T06:06:10.750Z,6.60
2022-07-29T06:39:49.053Z,6.53
2022-07-29T07:03:27.823Z,3.55
2022-07-29T07:04:06.532Z,5.88
2022-07-29T07:15:19.398Z,3.95
2022-07-29T07:21:07.164Z,3.65
2022-07-29T07:37:46.282Z,5.30
2022-07-29T07:42:35.270Z,10.93
2022-07-29T07:52:30.417Z,2.30
2022-07-29T07:57:05.367Z,2.08
2022-07-29T08:02:24.060Z,2.55
2022-07-29T08:06:55.504Z,2.85
2022-07-29T08:11:52.293Z,7.25
2022-07-29T08:16:16.690Z,2.47
2022-07-29T08:21:23.546Z,3.00
2022-07-29T08:26:17.960Z,2.13
2022-07-29T08:30:26.273Z,5.20
2022-07-29T08:35:25.389Z,3.53
2022-07-29T08:39:40.773Z,3.08
2022-07-29T08:46:01.761Z,2.60
2022-07-29T08:50:03.886Z,2.55
2022-07-29T08:54:58.389Z,2.78
2022-07-29T08:59:49.524Z,2.50
2022-07-29T09:04:32.862Z,3.50
2022-07-29T09:14:57.309Z,2.28
2022-07-29T09:25:19.497Z,2.28
2022-07-29T09:29:36.507Z,2.97
2022-07-29T10:03:24.437Z,2.40
2022-07-29T10:19:14.240Z,2.92
2022-07-29T10:30:50.977Z,2.50
2022-07-29T10:42:16.984Z,3.38
2022-07-29T11:55:50.874Z,3.38
2022-07-29T13:00:25.085Z,2.72
2022-07-29T13:04:29.413Z,3.55
2022-07-29T13:08:29.365Z,2.60
2022-07-29T13:12:31.030Z,3.10
2022-07-29T13:16:38.905Z,2.90
2022-07-29T13:20:40.648Z,2.53
2022-07-29T13:24:54.010Z,2.65
2022-07-29T13:28:53.579Z,2.72
2022-07-29T13:32:56.379Z,3.10
2022-07-29T13:36:56.385Z,3.30
2022-07-29T13:40:56.318Z,2.38
2022-07-29T13:44:56.445Z,3.22
2022-07-29T13:49:00.565Z,3.20
2022-07-29T13:53:00.510Z,3.50
2022-07-29T13:57:17.374Z,2.85
2022-07-29T14:02:33.118Z,2.60
2022-07-29T14:06:47.684Z,2.83
2022-07-29T14:10:48.911Z,3.03
2022-07-29T14:14:52.632Z,2.78
2022-07-29T14:18:55.491Z,2.70
2022-07-29T14:22:57.560Z,3.25
2022-07-29T14:27:06.059Z,3.40
2022-07-29T14:31:06.462Z,3.25
2022-07-29T14:35:19.463Z,4.22
2022-07-29T14:39:31.904Z,4.00
2022-07-29T14:43:45.492Z,4.80
2022-07-29T14:47:50.928Z,4.85
2022-07-29T14:51:56.961Z,3.65
2022-07-29T14:56:10.349Z,3.72
2022-07-29T15:00:22.210Z,5.43
2022-07-29T15:04:22.219Z,3.28
2022-07-29T15:08:22.238Z,3.85
2022-07-29T15:12:24.918Z,2.97
2022-07-29T16:37:00.503Z,5.75
2022-07-29T16:42:08.003Z,6.50
2022-07-29T16:53:02.636Z,9.40
2022-07-29T17:03:01.585Z,10.50
2022-07-29T17:13:24.698Z,10.85
2022-07-29T17:18:53.608Z,11.43
2022-07-29T17:24:35.967Z,10.40
2022-07-29T18:02:42.303Z,9.65
2022-07-29T20:29:31.313Z,3.65
2022-07-29T20:33:42.491Z,4.05
2022-07-29T20:37:55.863Z,3.70
2022-07-29T20:42:01.605Z,3.38
2022-07-29T20:46:14.103Z,4.40
2022-07-29T20:50:15.580Z,3.20
2022-07-29T20:54:25.023Z,3.88
2022-07-29T20:58:27.015Z,3.53
2022-07-29T21:02:30.942Z,4.90
2022-07-29T21:06:32.274Z,3.40
2022-07-29T21:11:03.137Z,3.97
2022-07-29T21:15:13.097Z,3.58
2022-07-29T21:20:02.275Z,3.90
2022-07-29T22:16:23.714Z,4.35
2022-07-29T22:21:20.328Z,5.60
2022-07-29T23:19:04.737Z,5.78
2022-07-29T23:56:21.477Z,7.20
